Time;durP1;ratioP1;P1;durP2;ratioP2;P2;SDS_P1;SDS_P2;PMS_P1;PMS_P2;Temp;Humidity;BMP_temperature;BMP_pressure;BME280_temperature;BME280_humidity;BME280_pressure;Samples;Min_cycle;Max_cycle;Signal;HPM_P1;HPM_P2
2023/10/20 00:01:33;;;;;;;19.25;10.10;;;14.40;99.90;;;;;;5055970;28;20028;-78
2023/10/20 00:03:59;;;;;;;22.05;9.88;;;14.40;99.90;;;;;;5056240;28;20024;-79
2023/10/20 00:06:25;;;;;;;20.90;10.88;;;14.40;99.90;;;;;;5056205;28;20087;-78
2023/10/20 00:08:50;;;;;;;21.35;10.77;;;14.40;99.90;;;;;;5055787;28;20394;-77
2023/10/20 00:11:17;;;;;;;20.50;11.25;;;14.40;99.90;;;;;;5054721;28;20082;-77
2023/10/20 00:13:43;;;;;;;22.13;12.75;;;14.40;99.90;;;;;;5055917;28;20385;-78
2023/10/20 00:16:09;;;;;;;21.77;11.63;;;15.00;99.90;;;;;;5055880;28;20017;-77
2023/10/20 00:18:35;;;;;;;23.27;12.10;;;14.50;99.90;;;;;;5054064;28;20429;-77
2023/10/20 00:21:00;;;;;;;25.38;12.20;;;14.50;99.90;;;;;;5055573;28;20104;-78
2023/10/20 00:23:27;;;;;;;22.13;12.82;;;14.50;99.90;;;;;;5054643;28;20021;-79
2023/10/20 00:25:52;;;;;;;23.40;12.45;;;14.50;99.90;;;;;;5055515;28;20496;-77
2023/10/20 00:28:18;;;;;;;25.02;13.15;;;14.50;99.90;;;;;;5054176;28;20108;-79
2023/10/20 00:30:43;;;;;;;25.35;13.43;;;14.50;99.90;;;;;;5054305;28;20021;-79
2023/10/20 00:33:09;;;;;;;21.60;12.35;;;14.50;99.90;;;;;;5055351;28;20025;-78
2023/10/20 00:35:35;;;;;;;26.00;13.57;;;14.50;99.90;;;;;;5054999;28;20017;-78
2023/10/20 00:38:01;;;;;;;23.58;12.57;;;14.50;99.90;;;;;;5055160;28;20024;-77
2023/10/20 00:40:27;;;;;;;27.63;13.52;;;14.50;99.90;;;;;;5055455;28;20031;-79
2023/10/20 00:42:53;;;;;;;26.05;14.32;;;14.50;99.90;;;;;;5055171;28;20033;-79
2023/10/20 00:45:19;;;;;;;25.90;14.15;;;14.50;99.90;;;;;;5055291;28;20040;-78
2023/10/20 00:47:45;;;;;;;28.23;15.35;;;14.50;99.90;;;;;;5053786;28;20028;-78
2023/10/20 00:50:13;;;;;;;28.30;14.27;;;14.50;99.90;;;;;;5055065;28;20048;-78
2023/10/20 00:52:49;;;;;;;29.75;15.70;;;14.50;99.90;;;;;;5055434;28;20024;-77
2023/10/20 00:55:15;;;;;;;28.48;14.20;;;14.50;99.90;;;;;;5055085;28;20104;-77
2023/10/20 00:57:43;;;;;;;29.00;15.35;;;14.50;99.90;;;;;;5055268;28;20064;-77
2023/10/20 01:00:09;;;;;;;25.92;13.85;;;14.90;99.90;;;;;;5054141;28;20041;-78
2023/10/20 01:02:38;;;;;;;25.88;14.25;;;14.50;99.90;;;;;;5055674;28;20431;-79
2023/10/20 01:05:08;;;;;;;36.10;16.08;;;14.50;99.90;;;;;;5054918;28;20464;-79
2023/10/20 01:07:34;;;;;;;29.85;14.43;;;14.40;99.90;;;;;;5053641;28;20048;-79
2023/10/20 01:10:06;;;;;;;30.35;14.55;;;14.40;99.90;;;;;;5055242;28;20036;-78
2023/10/20 01:12:33;;;;;;;26.80;14.30;;;14.40;99.90;;;;;;5054717;28;20423;-79
2023/10/20 01:14:59;;;;;;;28.95;15.00;;;14.40;99.90;;;;;;5053480;28;20052;-77
2023/10/20 01:17:27;;;;;;;28.38;14.90;;;14.40;99.90;;;;;;5053360;28;20056;-78
2023/10/20 01:19:52;;;;;;;27.83;13.60;;;14.40;99.90;;;;;;5054386;28;20036;-79
2023/10/20 01:22:18;;;;;;;26.88;14.30;;;14.40;99.90;;;;;;5054928;28;20468;-78
2023/10/20 01:24:43;;;;;;;27.45;13.93;;;14.30;99.90;;;;;;5053655;28;20445;-78
2023/10/20 01:27:09;;;;;;;33.92;15.07;;;14.30;99.90;;;;;;5054520;28;20017;-79
2023/10/20 01:29:34;;;;;;;30.50;14.13;;;14.80;99.90;;;;;;5054265;28;20029;-79
2023/10/20 01:32:00;;;;;;;27.15;13.02;;;15.50;99.90;;;;;;5054568;28;20028;-78
2023/10/20 01:34:26;;;;;;;29.65;14.65;;;14.20;99.90;;;;;;5053387;28;20025;-78
2023/10/20 01:36:51;;;;;;;28.10;14.23;;;14.10;99.90;;;;;;5053209;28;20020;-78
2023/10/20 01:39:17;;;;;;;36.75;15.13;;;14.10;99.90;;;;;;5054346;28;20415;-78
2023/10/20 01:41:42;;;;;;;28.98;13.43;;;14.10;99.90;;;;;;5054600;28;20025;-78
2023/10/20 01:44:13;;;;;;;31.38;14.25;;;14.00;99.90;;;;;;5054563;28;20025;-77
2023/10/20 01:46:38;;;;;;;24.45;13.35;;;14.00;99.90;;;;;;5054453;28;20100;-77
2023/10/20 01:49:05;;;;;;;29.88;14.38;;;14.00;99.90;;;;;;5054292;28;20108;-79
2023/10/20 01:51:31;;;;;;;32.95;14.40;;;14.00;99.90;;;;;;5054427;28;20064;-79
2023/10/20 01:53:57;;;;;;;28.55;14.38;;;14.00;99.90;;;;;;5054208;28;20473;-77
2023/10/20 01:56:22;;;;;;;27.52;13.02;;;13.90;99.90;;;;;;5053206;28;20085;-77
2023/10/20 01:58:49;;;;;;;29.40;14.00;;;13.90;99.90;;;;;;5054327;28;20020;-77
2023/10/20 02:01:14;;;;;;;28.00;13.75;;;13.80;99.90;;;;;;5054371;28;20029;-77
2023/10/20 02:03:40;;;;;;;26.20;13.60;;;13.80;99.90;;;;;;5053260;28;20124;-77
2023/10/20 02:06:05;;;;;;;30.73;13.57;;;13.70;99.90;;;;;;5052813;28;20044;-77
2023/10/20 02:08:32;;;;;;;30.15;13.57;;;14.50;99.90;;;;;;5052801;28;20442;-79
2023/10/20 02:10:58;;;;;;;30.73;13.95;;;13.70;99.90;;;;;;5052805;28;20032;-79
2023/10/20 02:13:23;;;;;;;35.10;14.27;;;13.60;99.90;;;;;;5054310;28;20096;-77
2023/10/20 02:15:50;;;;;;;27.95;13.30;;;13.60;99.90;;;;;;5052930;28;20562;-78
2023/10/20 02:18:17;;;;;;;27.15;13.77;;;;;;;;;;5052799;28;20021;-78
2023/10/20 02:20:43;;;;;;;26.20;12.98;;;13.50;99.90;;;;;;5052962;28;20031;-78
2023/10/20 02:23:09;;;;;;;31.27;13.60;;;13.50;99.90;;;;;;5054259;28;20426;-77
2023/10/20 02:25:35;;;;;;;28.15;13.60;;;13.40;99.90;;;;;;5052545;28;20029;-77
2023/10/20 02:28:02;;;;;;;29.75;12.68;;;13.40;99.90;;;;;;5053973;28;20117;-78
2023/10/20 02:30:31;;;;;;;27.52;12.77;;;13.40;99.90;;;;;;5052854;28;20465;-79
2023/10/20 02:32:57;;;;;;;;;;;13.40;99.90;;;;;;5057629;28;20063;-79
2023/10/20 02:35:23;;;;;;;25.52;11.65;;;13.30;99.90;;;;;;5057376;28;20280;-79
2023/10/20 02:37:49;;;;;;;29.13;14.07;;;13.30;99.90;;;;;;5055906;28;20017;-78
2023/10/20 02:40:14;;;;;;;24.92;12.85;;;13.30;99.90;;;;;;5056073;28;20422;-78
2023/10/20 02:42:43;;;;;;;26.75;11.50;;;13.30;99.90;;;;;;5058069;28;20017;-78
2023/10/20 02:45:10;;;;;;;;;;;13.20;99.90;;;;;;5056962;28;20404;-79
2023/10/20 02:47:37;;;;;;;25.30;11.85;;;13.20;99.90;;;;;;5058302;28;20000;-78
2023/10/20 02:50:03;;;;;;;26.42;12.48;;;13.10;99.90;;;;;;5058303;28;20017;-79
2023/10/20 02:52:28;;;;;;;30.92;13.60;;;13.10;99.90;;;;;;5058129;28;20071;-79
2023/10/20 02:54:54;;;;;;;29.23;12.57;;;13.00;99.90;;;;;;5056939;28;20447;-79
2023/10/20 02:57:21;;;;;;;34.15;12.40;;;13.00;99.90;;;;;;5058139;28;20389;-78
2023/10/20 02:59:50;;;;;;;32.88;12.93;;;12.90;99.90;;;;;;5057200;28;20055;-78
2023/10/20 03:02:16;;;;;;;;;;;12.90;99.90;;;;;;5057056;28;20032;-77
2023/10/20 03:04:41;;;;;;;32.88;13.13;;;12.90;99.90;;;;;;5057100;28;19905;-78
2023/10/20 03:07:08;;;;;;;28.92;12.02;;;12.90;99.90;;;;;;5056409;28;20036;-79
2023/10/20 03:09:35;;;;;;;27.20;12.23;;;12.80;99.90;;;;;;5056655;28;20014;-77
2023/10/20 03:12:01;;;;;;;27.13;12.32;;;12.80;99.90;;;;;;5056659;28;20503;-77
2023/10/20 03:14:27;;;;;;;29.45;13.05;;;12.80;99.90;;;;;;5057990;28;20021;-79
2023/10/20 03:16:52;;;;;;;30.65;13.68;;;12.70;99.90;;;;;;5056979;28;20029;-78
2023/10/20 03:19:20;;;;;;;28.48;12.00;;;12.70;99.90;;;;;;5055464;28;20061;-78
2023/10/20 03:21:47;;;;;;;29.92;12.32;;;12.60;99.90;;;;;;5055065;28;20027;-78
2023/10/20 03:24:13;;;;;;;34.67;12.65;;;12.60;99.90;;;;;;5055189;28;20013;-78
2023/10/20 03:26:38;;;;;;;30.60;13.02;;;12.60;99.90;;;;;;5056167;28;20021;-77
2023/10/20 03:29:04;;;;;;;32.85;11.90;;;13.30;99.90;;;;;;5056077;28;20029;-77
2023/10/20 03:31:31;;;;;;;28.55;12.48;;;12.50;99.90;;;;;;5055724;28;20017;-78
2023/10/20 03:33:57;;;;;;;37.58;13.73;;;12.40;99.90;;;;;;5055784;28;20484;-79
2023/10/20 03:36:23;;;;;;;31.80;12.40;;;12.30;99.90;;;;;;5056050;28;20021;-77
2023/10/20 03:38:49;;;;;;;35.10;11.52;;;12.20;99.90;;;;;;5055337;28;20029;-77
2023/10/20 03:41:15;;;;;;;28.90;11.20;;;12.20;99.90;;;;;;5055365;28;20017;-77
2023/10/20 03:43:41;;;;;;;28.58;13.25;;;12.20;99.90;;;;;;5054665;28;20098;-77
2023/10/20 03:46:06;;;;;;;31.58;13.30;;;12.30;99.90;;;;;;5055469;28;20021;-77
2023/10/20 03:48:35;;;;;;;33.33;12.05;;;12.10;99.90;;;;;;5056324;28;20021;-78
2023/10/20 03:51:04;;;;;;;31.40;13.05;;;12.10;99.90;;;;;;5054755;28;20021;-77
2023/10/20 03:53:35;;;;;;;32.83;12.15;;;12.00;99.90;;;;;;5055223;28;20024;-77
2023/10/20 03:56:05;;;;;;;32.22;12.85;;;12.00;99.90;;;;;;5055060;28;20048;-79
2023/10/20 03:58:30;;;;;;;27.80;11.85;;;12.00;99.90;;;;;;5054663;28;20025;-77
2023/10/20 04:00:57;;;;;;;29.77;11.88;;;12.00;99.90;;;;;;5054659;28;20028;-78
2023/10/20 04:03:26;;;;;;;30.42;11.35;;;12.00;99.90;;;;;;5054598;28;20049;-78
2023/10/20 04:05:52;;;;;;;28.70;11.48;;;12.00;99.90;;;;;;5055431;28;20032;-77
2023/10/20 04:08:18;;;;;;;27.00;12.52;;;11.90;99.90;;;;;;5055470;28;20021;-76
2023/10/20 04:10:44;;;;;;;29.63;12.70;;;11.90;99.90;;;;;;5053554;28;20029;-77
2023/10/20 04:13:12;;;;;;;28.95;11.50;;;11.90;99.90;;;;;;5053804;28;20025;-77
2023/10/20 04:15:39;;;;;;;26.52;10.40;;;11.80;99.90;;;;;;5054173;28;20020;-76
2023/10/20 04:18:05;;;;;;;27.00;11.30;;;12.50;99.90;;;;;;5055513;28;20032;-77
2023/10/20 04:20:39;;;;;;;28.10;10.18;;;11.80;99.90;;;;;;5055787;28;20444;-78
2023/10/20 04:23:07;;;;;;;28.48;11.90;;;11.80;99.90;;;;;;5053465;28;20052;-77
2023/10/20 04:25:39;;;;;;;26.70;10.75;;;11.80;99.90;;;;;;5054378;28;20025;-77
2023/10/20 04:49:58;;;;;;;30.33;12.20;;;11.70;99.90;;;;;;5054210;28;20036;-77
2023/10/20 05:08:04;;;;;;;26.23;10.80;;;11.50;99.90;;;;;;5054057;28;20037;-77
2023/10/20 05:10:29;;;;;;;27.55;10.98;;;11.50;99.90;;;;;;5053783;28;20507;-77
2023/10/20 05:12:55;;;;;;;27.05;11.30;;;11.60;99.90;;;;;;5052882;28;20013;-77
2023/10/20 05:15:21;;;;;;;24.23;11.02;;;11.50;99.90;;;;;;5052639;28;20040;-77
2023/10/20 05:17:50;;;;;;;27.60;12.05;;;11.50;99.90;;;;;;5053473;28;20025;-77
2023/10/20 05:20:19;;;;;;;25.15;11.27;;;11.60;99.90;;;;;;5052437;28;20607;-76
2023/10/20 05:22:46;;;;;;;27.15;11.98;;;11.50;99.90;;;;;;5053352;28;20032;-77
2023/10/20 05:25:12;;;;;;;27.02;11.25;;;11.50;99.90;;;;;;5052458;28;20027;-77
2023/10/20 05:27:38;;;;;;;23.65;10.32;;;11.50;99.90;;;;;;5052045;28;20559;-77
2023/10/20 05:30:04;;;;;;;26.88;9.93;;;11.50;99.90;;;;;;5052317;28;20491;-77
2023/10/20 05:32:31;;;;;;;27.40;11.50;;;11.50;99.90;;;;;;5053603;28;20013;-76
2023/10/20 05:35:00;;;;;;;33.58;12.05;;;11.50;99.90;;;;;;5053540;28;20043;-77
2023/10/20 05:37:26;;;;;;;26.77;10.88;;;11.50;99.90;;;;;;5052333;28;20124;-77
2023/10/20 05:39:53;;;;;;;24.58;10.63;;;11.40;99.90;;;;;;5052624;28;20053;-77
2023/10/20 05:42:18;;;;;;;29.38;10.35;;;11.40;99.90;;;;;;5053953;28;20029;-77
2023/10/20 05:47:29;;;;;;;23.13;9.80;;;11.40;99.90;;;;;;5055085;28;20044;-79
2023/10/20 05:49:59;;;;;;;27.25;11.18;;;11.40;99.90;;;;;;5052542;28;20043;-78
2023/10/20 05:52:24;;;;;;;20.77;9.57;;;11.40;99.90;;;;;;5053357;28;20100;-77
2023/10/20 05:54:50;;;;;;;22.25;8.90;;;;;;;;;;5052120;28;20048;-78
2023/10/20 05:57:16;;;;;;;19.70;8.50;;;11.40;99.90;;;;;;5053213;28;20074;-78
2023/10/20 05:59:42;;;;;;;17.27;7.68;;;11.40;99.90;;;;;;5053827;28;20096;-77
2023/10/20 06:02:08;;;;;;;17.38;7.50;;;11.30;99.90;;;;;;5054730;28;20025;-78
2023/10/20 06:04:34;;;;;;;17.30;7.70;;;11.30;99.90;;;;;;5053346;28;20036;-78
2023/10/20 06:07:01;;;;;;;18.65;7.75;;;11.30;99.90;;;;;;5055957;28;20093;-75
2023/10/20 06:09:27;;;;;;;18.90;7.43;;;11.40;99.90;;;;;;5059110;28;20122;-77
2023/10/20 06:11:53;;;;;;;17.45;7.53;;;11.40;99.90;;;;;;5057574;28;20047;-77
2023/10/20 06:14:20;;;;;;;14.60;6.85;;;11.30;99.90;;;;;;5057659;28;20025;-77
2023/10/20 06:16:46;;;;;;;16.10;6.85;;;11.30;99.90;;;;;;5056877;28;20040;-77
2023/10/20 06:19:11;;;;;;;12.82;6.22;;;11.30;99.90;;;;;;5055870;28;20060;-77
2023/10/20 06:21:38;;;;;;;13.23;5.70;;;11.20;99.90;;;;;;5056755;28;20067;-77
2023/10/20 06:24:04;;;;;;;12.30;4.80;;;11.20;99.90;;;;;;5057244;28;20087;-77
2023/10/20 06:26:30;;;;;;;11.30;5.88;;;11.20;99.90;;;;;;5055896;28;20025;-77
2023/10/20 06:28:55;;;;;;;10.93;4.78;;;11.20;99.90;;;;;;5056448;28;20103;-77
2023/10/20 06:31:27;;;;;;;11.02;4.70;;;11.20;99.90;;;;;;5056538;28;20021;-78
2023/10/20 06:36:40;;;;;;;11.65;4.22;;;11.10;99.90;;;;;;5058424;28;20511;-77
2023/10/20 06:39:07;;;;;;;9.07;4.20;;;11.20;99.90;;;;;;5057978;28;20070;-77
2023/10/20 06:41:34;;;;;;;7.38;3.28;;;11.00;99.90;;;;;;5057420;28;20029;-77
2023/10/20 06:44:00;;;;;;;7.55;3.70;;;11.10;99.90;;;;;;5057728;28;20021;-77
2023/10/20 06:46:27;;;;;;;7.30;3.15;;;11.10;99.90;;;;;;5057710;28;20025;-77
2023/10/20 06:48:52;;;;;;;9.88;3.88;;;13.90;99.90;;;;;;5056536;28;20025;-77
2023/10/20 06:51:18;;;;;;;11.20;4.07;;;11.00;99.90;;;;;;5056999;28;20465;-77
2023/10/20 06:53:43;;;;;;;9.00;3.67;;;11.00;99.90;;;;;;5055737;28;20462;-77
2023/10/20 06:56:09;;;;;;;11.68;4.25;;;11.00;99.90;;;;;;5056355;28;20028;-78
2023/10/20 06:58:34;;;;;;;10.88;4.40;;;11.00;99.90;;;;;;5055437;28;20060;-77
2023/10/20 07:01:04;;;;;;;11.73;4.00;;;10.90;99.90;;;;;;5057188;28;20119;-76
2023/10/20 07:03:32;;;;;;;11.73;4.30;;;11.00;99.90;;;;;;5057124;28;20017;-77
2023/10/20 07:05:58;;;;;;;9.40;3.67;;;10.90;99.90;;;;;;5055495;28;20029;-77
2023/10/20 07:08:24;;;;;;;11.50;4.00;;;10.90;99.90;;;;;;5056125;28;20025;-77
2023/10/20 07:10:50;;;;;;;9.85;4.20;;;10.90;99.90;;;;;;5054654;28;20021;-75
2023/10/20 07:13:17;;;;;;;14.00;5.38;;;10.90;99.90;;;;;;5055423;28;20032;-75
2023/10/20 07:15:43;;;;;;;11.32;5.05;;;10.90;99.90;;;;;;5055306;28;20110;-75
2023/10/20 07:18:11;;;;;;;16.10;4.80;;;10.80;99.90;;;;;;5054884;28;20087;-74
2023/10/20 07:20:41;;;;;;;8.60;4.28;;;10.80;99.90;;;;;;5055377;28;20021;-75
2023/10/20 07:23:07;;;;;;;13.70;5.03;;;10.80;99.90;;;;;;5055146;28;20029;-74
2023/10/20 07:25:33;;;;;;;11.40;4.72;;;10.80;99.90;;;;;;5053933;28;20024;-75
2023/10/20 07:27:59;;;;;;;11.43;4.68;;;10.80;99.90;;;;;;5053803;28;20036;-75
2023/10/20 07:30:27;;;;;;;11.63;4.43;;;10.70;99.90;;;;;;5055057;28;20017;-76
2023/10/20 07:32:55;;;;;;;10.80;4.57;;;10.80;99.90;;;;;;5054998;28;20036;-75
2023/10/20 07:35:21;;;;;;;11.10;4.75;;;10.80;99.90;;;;;;5054890;28;20343;-75
2023/10/20 07:37:47;;;;;;;13.05;4.93;;;10.70;99.90;;;;;;5053749;28;20056;-75
2023/10/20 07:40:13;;;;;;;13.65;4.57;;;10.70;99.90;;;;;;5054668;28;20048;-75
2023/10/20 07:42:39;;;;;;;12.48;4.72;;;10.80;99.90;;;;;;5055215;28;20030;-75
2023/10/20 07:45:08;;;;;;;13.18;4.30;;;10.70;99.90;;;;;;5053250;28;20028;-74
2023/10/20 07:47:34;;;;;;;;;;;10.70;99.90;;;;;;5053993;28;20025;-75
2023/10/20 07:50:00;;;;;;;10.68;4.80;;;10.70;99.90;;;;;;5054589;28;20257;-76
2023/10/20 07:52:26;;;;;;;10.48;3.97;;;10.70;99.90;;;;;;5053724;28;20465;-76
2023/10/20 07:54:52;;;;;;;13.35;4.15;;;10.60;99.90;;;;;;5051261;28;20155;-75
2023/10/20 07:57:19;;;;;;;9.40;3.80;;;10.60;99.90;;;;;;5054025;28;20064;-75
2023/10/20 07:59:46;;;;;;;9.55;4.13;;;10.60;99.90;;;;;;5054559;28;20040;-76
2023/10/20 08:02:11;;;;;;;10.95;3.75;;;10.60;99.90;;;;;;5054534;28;20377;-76
2023/10/20 08:04:37;;;;;;;8.13;3.60;;;10.60;99.90;;;;;;5055018;28;20032;-76
2023/10/20 08:07:03;;;;;;;10.32;3.33;;;10.60;99.90;;;;;;5054552;28;20045;-77
2023/10/20 08:09:29;;;;;;;6.30;3.13;;;10.60;99.90;;;;;;5054560;28;20025;-76
2023/10/20 08:11:56;;;;;;;7.85;2.85;;;10.60;99.90;;;;;;5054818;28;20025;-76
2023/10/20 08:14:23;;;;;;;7.15;3.17;;;10.60;99.90;;;;;;5054816;28;20017;-75
2023/10/20 08:16:49;;;;;;;6.70;3.13;;;10.60;99.90;;;;;;5054159;28;20519;-76
2023/10/20 08:19:15;;;;;;;7.45;3.03;;;11.00;99.90;;;;;;5052802;28;20047;-75
2023/10/20 08:21:42;;;;;;;8.27;3.03;;;11.80;99.90;;;;;;5054132;28;20051;-75
2023/10/20 08:24:08;;;;;;;7.70;2.85;;;10.70;99.90;;;;;;5052781;28;20021;-76
2023/10/20 08:26:33;;;;;;;7.13;2.88;;;10.60;99.90;;;;;;5052576;28;20024;-76
2023/10/20 08:28:59;;;;;;;10.98;2.78;;;10.60;99.90;;;;;;5053753;28;20452;-76
2023/10/20 08:31:25;;;;;;;5.40;1.92;;;10.60;99.90;;;;;;5053558;28;20036;-76
2023/10/20 08:33:52;;;;;;;4.72;1.77;;;10.60;99.90;;;;;;5053963;28;20027;-76
2023/10/20 08:36:22;;;;;;;7.47;2.20;;;10.60;99.90;;;;;;5052546;28;20013;-75
2023/10/20 08:38:49;;;;;;;4.53;1.45;;;10.50;99.90;;;;;;5053720;28;20033;-76
2023/10/20 08:41:21;;;;;;;4.68;1.70;;;10.60;99.90;;;;;;5052517;28;20025;-75
2023/10/20 08:43:47;;;;;;;4.25;1.35;;;10.50;99.90;;;;;;5052591;28;20075;-76
2023/10/20 08:46:16;;;;;;;3.17;1.30;;;10.50;99.90;;;;;;5052424;28;20033;-76
2023/10/20 08:48:45;;;;;;;3.95;1.25;;;10.50;99.90;;;;;;5052297;28;20025;-76
2023/10/20 08:51:13;;;;;;;2.90;0.90;;;10.40;99.90;;;;;;5053383;28;20369;-76
2023/10/20 08:53:39;;;;;;;3.53;0.90;;;10.40;99.90;;;;;;5053540;28;20444;-76
2023/10/20 08:56:10;;;;;;;2.33;0.68;;;10.40;99.90;;;;;;5052979;28;20053;-76
2023/10/20 08:58:36;;;;;;;4.15;1.00;;;10.40;99.90;;;;;;5053365;28;20488;-76
2023/10/20 09:01:03;;;;;;;3.70;0.75;;;10.40;99.90;;;;;;5052185;28;20035;-76
2023/10/20 09:03:49;;;;;;;3.33;0.47;;;10.40;99.90;;;;;;5052023;28;20028;-75
2023/10/20 09:06:15;;;;;;;1.85;0.50;;;10.30;99.90;;;;;;5051994;28;20082;-76
2023/10/20 09:08:43;;;;;;;2.17;0.40;;;10.30;99.90;;;;;;5052016;28;20524;-76
2023/10/20 09:11:10;;;;;;;2.50;0.30;;;10.30;99.90;;;;;;5053838;28;20048;-75
2023/10/20 09:13:40;;;;;;;1.95;0.50;;;10.40;99.90;;;;;;5053277;28;20021;-76
2023/10/20 09:16:09;;;;;;;2.25;0.55;;;10.30;99.90;;;;;;5053261;28;20100;-76
2023/10/20 09:18:42;;;;;;;2.85;0.32;;;10.30;99.90;;;;;;5053166;28;20111;-76
2023/10/20 09:21:08;;;;;;;1.55;0.32;;;10.30;99.90;;;;;;5051998;28;20078;-76
2023/10/20 09:23:33;;;;;;;1.48;0.40;;;10.30;99.90;;;;;;5053132;28;20032;-75
2023/10/20 09:25:59;;;;;;;0.60;0.32;;;10.30;99.90;;;;;;5053367;28;20028;-75
2023/10/20 09:28:25;;;;;;;1.80;0.50;;;10.30;99.90;;;;;;5053078;28;20029;-75
2023/10/20 09:30:51;;;;;;;1.05;0.20;;;10.20;99.90;;;;;;5053253;28;20023;-76
2023/10/20 09:33:21;;;;;;;0.95;0.52;;;10.20;99.90;;;;;;5053095;28;20026;-76
2023/10/20 09:35:46;;;;;;;0.80;0.30;;;9.90;99.90;;;;;;5052997;28;20444;-75
2023/10/20 09:38:13;;;;;;;0.77;0.10;;;10.20;99.90;;;;;;5051812;28;20071;-76
2023/10/20 09:40:41;;;;;;;1.48;0.10;;;10.20;99.90;;;;;;5054150;28;20481;-76
2023/10/20 09:43:19;;;;;;;1.50;0.20;;;10.20;99.90;;;;;;5057253;28;20053;-76
2023/10/20 09:45:50;;;;;;;0.85;0.10;;;10.20;99.90;;;;;;5056998;28;20029;-76
2023/10/20 09:48:18;;;;;;;0.60;0.10;;;10.20;99.90;;;;;;5056837;28;20021;-76
2023/10/20 09:50:46;;;;;;;0.53;0.13;;;10.10;99.90;;;;;;5056851;28;20502;-75
2023/10/20 09:53:14;;;;;;;1.25;0.10;;;10.80;99.90;;;;;;5056742;28;20028;-75
2023/10/20 09:55:42;;;;;;;0.17;0.13;;;10.00;99.90;;;;;;5055869;28;20095;-75
2023/10/20 09:58:07;;;;;;;0.30;0.00;;;10.00;99.90;;;;;;5056899;28;20024;-77
2023/10/20 10:00:35;;;;;;;1.23;0.17;;;10.00;99.90;;;;;;5055569;28;20097;-76
2023/10/20 10:03:00;;;;;;;1.67;0.20;;;10.00;99.90;;;;;;5055517;28;20070;-75
2023/10/20 10:05:27;;;;;;;0.22;0.00;;;10.00;99.90;;;;;;5055197;28;20104;-75
2023/10/20 10:08:10;;;;;;;0.70;0.00;;;10.00;99.90;;;;;;5056670;28;20013;-76
2023/10/20 10:10:36;;;;;;;0.13;0.00;;;10.00;99.90;;;;;;5055379;28;20435;-76
2023/10/20 10:13:05;;;;;;;0.38;0.00;;;10.00;99.90;;;;;;5056805;28;20021;-77
2023/10/20 10:15:38;;;;;;;0.17;0.00;;;10.00;99.90;;;;;;5055142;28;20017;-76
2023/10/20 10:18:10;;;;;;;0.40;0.00;;;10.00;99.90;;;;;;5054203;28;20116;-77
2023/10/20 10:20:46;;;;;;;1.83;0.00;;;10.00;99.90;;;;;;5056273;28;20480;-76
2023/10/20 10:23:12;;;;;;;2.83;0.10;;;10.00;99.90;;;;;;5056345;28;20028;-76
2023/10/20 10:25:43;;;;;;;1.40;0.40;;;10.00;99.90;;;;;;5056161;28;20021;-76
2023/10/20 10:28:17;;;;;;;0.00;0.00;;;10.00;99.90;;;;;;5055947;28;20021;-75
2023/10/20 10:30:45;;;;;;;1.42;0.00;;;10.00;99.90;;;;;;5055563;28;20024;-75
2023/10/20 10:33:12;;;;;;;0.15;0.00;;;10.00;99.90;;;;;;5054792;28;20017;-75
2023/10/20 10:35:38;;;;;;;0.05;0.00;;;10.10;99.90;;;;;;5056185;28;20044;-76
2023/10/20 10:38:09;;;;;;;0.75;0.03;;;10.10;99.90;;;;;;5056077;28;20028;-76
2023/10/20 10:40:44;;;;;;;0.00;0.00;;;10.10;99.90;;;;;;5056618;28;20143;-75
2023/10/20 10:43:14;;;;;;;0.00;0.00;;;10.10;99.90;;;;;;5055115;28;20499;-75
2023/10/20 10:45:42;;;;;;;0.03;0.00;;;10.10;99.90;;;;;;5056598;28;20025;-76
2023/10/20 10:48:13;;;;;;;0.32;0.00;;;10.10;99.90;;;;;;5055722;28;20024;-75
2023/10/20 10:50:43;;;;;;;0.40;0.00;;;10.10;99.90;;;;;;5055911;28;20437;-76
2023/10/20 10:53:12;;;;;;;0.20;0.00;;;10.00;99.90;;;;;;5054976;28;20052;-76
2023/10/20 10:55:39;;;;;;;1.52;0.00;;;10.00;99.90;;;;;;5055730;28;20388;-76
2023/10/20 10:58:10;;;;;;;0.15;0.00;;;10.00;99.90;;;;;;5055663;28;20025;-75
2023/10/20 11:00:37;;;;;;;0.82;0.00;;;10.00;99.90;;;;;;5055951;28;20370;-75
2023/10/20 11:03:04;;;;;;;0.35;0.00;;;10.00;99.90;;;;;;5055573;28;20074;-76
2023/10/20 11:05:31;;;;;;;0.28;0.00;;;10.00;99.90;;;;;;5055364;28;20481;-76
2023/10/20 11:08:02;;;;;;;0.00;0.00;;;10.00;99.90;;;;;;5055404;28;20064;-75
2023/10/20 11:10:29;;;;;;;0.00;0.00;;;9.90;99.90;;;;;;5056018;28;20074;-76
2023/10/20 11:12:56;;;;;;;0.03;0.00;;;11.10;99.90;;;;;;5055377;28;20503;-76
2023/10/20 11:15:30;;;;;;;0.00;0.00;;;10.00;99.90;;;;;;5054116;28;20017;-76
2023/10/20 11:17:57;;;;;;;2.55;0.10;;;10.00;99.90;;;;;;5054164;28;20021;-76
2023/10/20 11:20:24;;;;;;;0.00;0.00;;;10.00;99.90;;;;;;5055562;28;20100;-77
2023/10/20 11:22:56;;;;;;;0.13;0.00;;;10.00;99.90;;;;;;5055541;28;20040;-76
2023/10/20 11:25:24;;;;;;;0.22;0.00;;;10.00;99.90;;;;;;5055082;28;20442;-77
2023/10/20 11:27:54;;;;;;;0.03;0.00;;;10.00;99.90;;;;;;5055197;28;20028;-76
2023/10/20 11:30:34;;;;;;;0.85;0.10;;;10.00;99.90;;;;;;5053927;28;20200;-76
2023/10/20 11:33:01;;;;;;;0.90;0.00;;;10.00;99.90;;;;;;5055646;28;20018;-76
2023/10/20 11:35:27;;;;;;;0.15;0.00;;;10.00;99.90;;;;;;5053752;28;20013;-76
2023/10/20 11:37:56;;;;;;;0.00;0.00;;;10.00;99.90;;;;;;5054906;28;20033;-77
2023/10/20 11:40:23;;;;;;;0.13;0.00;;;10.00;99.90;;;;;;5054908;28;20063;-76
2023/10/20 11:42:48;;;;;;;0.25;0.00;;;10.00;99.90;;;;;;5054858;28;20047;-76
2023/10/20 11:45:15;;;;;;;1.67;0.00;;;10.10;99.90;;;;;;5055322;28;20100;-76
2023/10/20 11:47:41;;;;;;;0.22;0.00;;;10.00;99.90;;;;;;5053479;28;20209;-76
2023/10/20 11:50:11;;;;;;;0.52;0.00;;;10.80;99.90;;;;;;5053862;28;20362;-76
2023/10/20 11:52:40;;;;;;;0.20;0.00;;;10.10;99.90;;;;;;5054800;28;20029;-78
2023/10/20 11:55:08;;;;;;;0.10;0.00;;;10.10;99.90;;;;;;5054718;28;20020;-76
2023/10/20 11:57:34;;;;;;;0.10;0.00;;;10.00;99.90;;;;;;5053321;28;20043;-75
2023/10/20 12:00:03;;;;;;;0.10;0.00;;;10.10;99.90;;;;;;5054582;28;20017;-76
2023/10/20 12:02:29;;;;;;;0.52;0.28;;;10.10;99.90;;;;;;5054554;28;20040;-77
2023/10/20 12:04:54;;;;;;;0.00;0.00;;;10.10;99.90;;;;;;5055067;28;20052;-76
2023/10/20 12:07:20;;;;;;;0.40;0.00;;;10.10;99.90;;;;;;5054469;28;20065;-77
2023/10/20 12:09:46;;;;;;;0.10;0.10;;;10.10;99.90;;;;;;5053451;28;20024;-77
2023/10/20 12:12:12;;;;;;;0.00;0.00;;;10.10;99.90;;;;;;5053211;28;20028;-77
2023/10/20 12:14:37;;;;;;;0.15;0.00;;;10.10;99.90;;;;;;5054644;28;20021;-77
2023/10/20 12:17:03;;;;;;;1.95;0.00;;;10.10;99.90;;;;;;5054540;28;20028;-77
2023/10/20 12:19:28;;;;;;;1.92;0.00;;;10.10;99.90;;;;;;5055077;28;20096;-77
2023/10/20 12:21:54;;;;;;;0.10;0.00;;;10.20;99.90;;;;;;5053212;28;20025;-77
2023/10/20 12:24:19;;;;;;;0.20;0.10;;;10.20;99.90;;;;;;5053088;28;20014;-76
2023/10/20 12:26:45;;;;;;;0.10;0.00;;;10.30;99.90;;;;;;5052901;28;20027;-76
2023/10/20 12:29:11;;;;;;;0.05;0.00;;;10.80;99.90;;;;;;5052755;28;20485;-76
2023/10/20 12:31:37;;;;;;;0.10;0.00;;;10.30;99.90;;;;;;5052818;28;20028;-76
2023/10/20 12:34:02;;;;;;;0.10;0.00;;;10.30;99.90;;;;;;5052651;28;20017;-77
2023/10/20 12:36:31;;;;;;;0.00;0.00;;;10.30;99.90;;;;;;5052800;28;20098;-77
2023/10/20 12:38:56;;;;;;;0.13;0.00;;;10.30;99.90;;;;;;5054178;28;20100;-78
2023/10/20 12:41:22;;;;;;;0.25;0.00;;;10.30;99.90;;;;;;5052556;28;20057;-76
2023/10/20 12:43:48;;;;;;;0.65;0.00;;;10.30;99.90;;;;;;5054011;28;20094;-77
2023/10/20 12:46:13;;;;;;;1.65;0.17;;;10.30;99.90;;;;;;5053758;28;20040;-77
2023/10/20 12:48:40;;;;;;;1.08;0.30;;;10.30;99.90;;;;;;5052708;28;20025;-77
2023/10/20 12:51:10;;;;;;;1.10;0.00;;;10.30;99.90;;;;;;5052868;28;20021;-77
2023/10/20 12:53:36;;;;;;;1.77;0.00;;;10.30;99.90;;;;;;5053908;28;20028;-76
2023/10/20 12:56:02;;;;;;;2.80;0.10;;;10.30;99.90;;;;;;5053695;28;20036;-77
2023/10/20 12:58:28;;;;;;;0.68;0.00;;;10.30;99.90;;;;;;5054013;28;20094;-76
2023/10/20 13:00:54;;;;;;;0.30;0.00;;;10.30;99.90;;;;;;5053708;28;20033;-77
2023/10/20 13:03:20;;;;;;;1.08;0.00;;;10.20;99.90;;;;;;5053823;28;20036;-77
2023/10/20 13:05:45;;;;;;;2.97;0.00;;;10.30;99.90;;;;;;5052613;28;20042;-77
2023/10/20 13:08:13;;;;;;;0.65;0.00;;;10.30;99.90;;;;;;5052404;28;20474;-77
2023/10/20 13:10:39;;;;;;;0.43;0.00;;;10.20;99.90;;;;;;5053782;28;20021;-77
2023/10/20 13:13:06;;;;;;;2.28;0.35;;;10.50;99.90;;;;;;5052427;28;20048;-77
2023/10/20 13:15:35;;;;;;;3.15;0.00;;;11.00;99.90;;;;;;5052017;28;20476;-77
2023/10/20 13:18:01;;;;;;;;;;;10.30;99.90;;;;;;5054000;28;20029;-77
2023/10/20 13:20:26;;;;;;;0.00;0.00;;;10.40;99.90;;;;;;5053703;28;20003;-77
2023/10/20 13:22:52;;;;;;;0.00;0.00;;;10.20;99.90;;;;;;5053071;28;20086;-77